Map

Track Data

SID SEASON NUMBER BASIN SUBBASIN NAME ISO_TIME NATURE LAT LON WMO_WIND WMO_PRES WMO_AGENCY TRACK_TYPE DIST2LAND LANDFALL IFLAG USA_AGENCY USA_ATCF_ID USA_LAT USA_LON USA_RECORD USA_STATUS USA_WIND USA_PRES USA_SSHS USA_R34_NE USA_R34_SE USA_R34_SW USA_R34_NW USA_R50_NE USA_R50_SE USA_R50_SW USA_R50_NW USA_R64_NE USA_R64_SE USA_R64_SW USA_R64_NW USA_POCI USA_ROCI USA_RMW USA_EYE TOKYO_LAT TOKYO_LON TOKYO_GRADE TOKYO_WIND TOKYO_PRES TOKYO_R50_DIR TOKYO_R50_LONG TOKYO_R50_SHORT TOKYO_R30_DIR TOKYO_R30_LONG TOKYO_R30_SHORT TOKYO_LAND CMA_LAT CMA_LON CMA_CAT CMA_WIND CMA_PRES HKO_LAT HKO_LON HKO_CAT HKO_WIND HKO_PRES NEWDELHI_LAT NEWDELHI_LON NEWDELHI_GRADE NEWDELHI_WIND NEWDELHI_PRES NEWDELHI_CI NEWDELHI_DP NEWDELHI_POCI REUNION_LAT REUNION_LON REUNION_TYPE REUNION_WIND REUNION_PRES REUNION_TNUM REUNION_CI REUNION_RMW REUNION_R34_NE REUNION_R34_SE REUNION_R34_SW REUNION_R34_NW REUNION_R50_NE REUNION_R50_SE REUNION_R50_SW REUNION_R50_NW REUNION_R64_NE REUNION_R64_SE REUNION_R64_SW REUNION_R64_NW BOM_LAT BOM_LON BOM_TYPE BOM_WIND BOM_PRES BOM_TNUM BOM_CI BOM_RMW BOM_R34_NE BOM_R34_SE BOM_R34_SW BOM_R34_NW BOM_R50_NE BOM_R50_SE BOM_R50_SW BOM_R50_NW BOM_R64_NE BOM_R64_SE BOM_R64_SW BOM_R64_NW BOM_ROCI BOM_POCI BOM_EYE BOM_POS_METHOD BOM_PRES_METHOD NADI_LAT NADI_LON NADI_CAT NADI_WIND NADI_PRES WELLINGTON_LAT WELLINGTON_LON WELLINGTON_WIND WELLINGTON_PRES DS824_LAT DS824_LON DS824_STAGE DS824_WIND DS824_PRES TD9636_LAT TD9636_LON TD9636_STAGE TD9636_WIND TD9636_PRES TD9635_LAT TD9635_LON TD9635_WIND TD9635_PRES TD9635_ROCI NEUMANN_LAT NEUMANN_LON NEUMANN_CLASS NEUMANN_WIND NEUMANN_PRES MLC_LAT MLC_LON MLC_CLASS MLC_WIND MLC_PRES USA_GUST BOM_GUST BOM_GUST_PER REUNION_GUST REUNION_GUST_PER USA_SEAHGT USA_SEARAD_NE USA_SEARAD_SE USA_SEARAD_SW USA_SEARAD_NW STORM_SPEED STORM_DIR
1904092S13068 1904 7 SI MM NOT_NAMED 1904-04-01 06:00:00 NR -13.4000 68.2000 reunion main 1345 1315 _____O________ -1 -13.4000 68.2000 99 9.90000 7 228
1904092S13068 1904 7 SI MM NOT_NAMED 1904-04-01 09:00:00 NR -13.6213 67.9500 main 1306 1275 _____P________ -1 -13.6213 67.9500 99 7 228
1904092S13068 1904 7 SI MM NOT_NAMED 1904-04-01 12:00:00 NR -13.8429 67.6996 main 1275 1238 _____P________ -1 -13.8429 67.6996 99 7 228
1904092S13068 1904 7 SI MM NOT_NAMED 1904-04-01 15:00:00 NR -14.0650 67.4491 main 1229 1199 _____P________ -1 -14.0650 67.4491 99 7 228
1904092S13068 1904 7 SI MM NOT_NAMED 1904-04-01 18:00:00 NR -14.2882 67.1987 main 1199 1169 _____P________ -1 -14.2882 67.1987 99 7 227
1904092S13068 1904 7 SI MM NOT_NAMED 1904-04-01 21:00:00 NR -14.5129 66.9484 main 1160 1129 _____P________ -1 -14.5129 66.9484 99 7 227
1904092S13068 1904 7 SI MM NOT_NAMED 1904-04-02 00:00:00 NR -14.7394 66.6984 main 1129 1093 _____P________ -1 -14.7394 66.6984 99 7 227
1904092S13068 1904 7 SI MM NOT_NAMED 1904-04-02 03:00:00 NR -14.9683 66.4489 main 1084 1054 _____P________ -1 -14.9683 66.4489 99 7 226
1904092S13068 1904 7 SI MM NOT_NAMED 1904-04-02 06:00:00 NR -15.2000 66.2000 reunion main 1054 1024 _____O________ -1 -15.2000 66.2000 99 9.90000 7 226
1904092S13068 1904 7 SI MM NOT_NAMED 1904-04-02 09:00:00 NR -15.4349 65.9521 main 1024 979 _____P________ -1 -15.4349 65.9521 99 7 225
1904092S13068 1904 7 SI MM NOT_NAMED 1904-04-02 12:00:00 NR -15.6734 65.7070 main 979 949 _____P________ -1 -15.6734 65.7070 99 7 224
1904092S13068 1904 7 SI MM NOT_NAMED 1904-04-02 15:00:00 NR -15.9158 65.4663 main 949 910 _____P________ -1 -15.9158 65.4663 99 7 223
1904092S13068 1904 7 SI MM NOT_NAMED 1904-04-02 18:00:00 NR -16.1625 65.2322 main 904 874 _____P________ -1 -16.1625 65.2322 99 7 222
1904092S13068 1904 7 SI MM NOT_NAMED 1904-04-02 21:00:00 NR -16.4139 65.0066 main 874 840 _____P________ -1 -16.4139 65.0066 99 7 220
1904092S13068 1904 7 SI MM NOT_NAMED 1904-04-03 00:00:00 NR -16.6704 64.7914 main 840 810 _____P________ -1 -16.6704 64.7914 99 7 218
1904092S13068 1904 7 SI MM NOT_NAMED 1904-04-03 03:00:00 NR -16.9323 64.5885 main 810 776 _____P________ -1 -16.9323 64.5885 99 7 215
1904092S13068 1904 7 SI MM NOT_NAMED 1904-04-03 06:00:00 NR -17.2000 64.4000 reunion main 776 742 _____O________ -1 -17.2000 64.4000 99 9.90000 7 217
1904092S13068 1904 7 SI MM NOT_NAMED 1904-04-03 09:00:00 NR -17.4695 64.1605 main 742 704 _____P________ -1 -17.4695 64.1605 99 7 220
1904092S13068 1904 7 SI MM NOT_NAMED 1904-04-03 12:00:00 NR -17.7447 63.9273 main 704 670 _____P________ -1 -17.7447 63.9273 99 7 218
1904092S13068 1904 7 SI MM NOT_NAMED 1904-04-03 15:00:00 NR -18.0255 63.7116 main 670 638 _____P________ -1 -18.0255 63.7116 99 7 214
1904092S13068 1904 7 SI MM NOT_NAMED 1904-04-03 18:00:00 NR -18.3113 63.5250 main 638 617 _____P________ -1 -18.3113 63.5250 99 7 209
1904092S13068 1904 7 SI MM NOT_NAMED 1904-04-03 21:00:00 NR -18.6019 63.3789 main 617 596 _____P________ -1 -18.6019 63.3789 99 6 201
1904092S13068 1904 7 SI MM NOT_NAMED 1904-04-04 00:00:00 NR -18.8971 63.2848 main 596 588 _____P________ -1 -18.8971 63.2848 99 6 191
1904092S13068 1904 7 SI MM NOT_NAMED 1904-04-04 03:00:00 NR -19.1966 63.2546 main 588 581 _____P________ -1 -19.1966 63.2546 99 6 0
1904092S13068 1904 7 SI MM NOT_NAMED 1904-04-04 06:00:00 NR -19.5000 63.3000 reunion main 581 580 _____O________ -1 -19.5000 63.3000 99 9.90000 7 163
1904092S13068 1904 7 SI MM NOT_NAMED 1904-04-04 09:00:00 NR -19.8386 63.4686 main 597 595 _____P________ -1 -19.8386 63.4686 99 8 150
1904092S13068 1904 7 SI MM NOT_NAMED 1904-04-04 12:00:00 NR -20.1858 63.7180 main 615 615 _____P________ -1 -20.1858 63.7180 99 9 143
1904092S13068 1904 7 SI MM NOT_NAMED 1904-04-04 15:00:00 NR -20.5335 64.0306 main 646 646 _____P________ -1 -20.5335 64.0306 99 9 138
1904092S13068 1904 7 SI MM NOT_NAMED 1904-04-04 18:00:00 NR -20.8736 64.3883 main 690 690 _____P________ -1 -20.8736 64.3883 99 10 134
1904092S13068 1904 7 SI MM NOT_NAMED 1904-04-04 21:00:00 NR -21.1981 64.7728 main 734 734 _____P________ -1 -21.1981 64.7728 99 10 131
1904092S13068 1904 7 SI MM NOT_NAMED 1904-04-05 00:00:00 NR -21.4991 65.1654 main 780 780 _____P________ -1 -21.4991 65.1654 99 9 128
1904092S13068 1904 7 SI MM NOT_NAMED 1904-04-05 03:00:00 NR -21.7689 65.5475 main 816 816 _____P________ -1 -21.7689 65.5475 99 8 126
1904092S13068 1904 7 SI MM NOT_NAMED 1904-04-05 06:00:00 NR -22.0000 65.9000 reunion main 860 860 _____O________ -1 -22.0000 65.9000 99 9.90000 7 124
1904092S13068 1904 7 SI MM NOT_NAMED 1904-04-05 09:00:00 NR -22.1873 66.2079 main 895 895 _____P________ -1 -22.1873 66.2079 99 6 122
1904092S13068 1904 7 SI MM NOT_NAMED 1904-04-05 12:00:00 NR -22.3345 66.4729 main 928 928 _____P________ -1 -22.3345 66.4729 99 5 120
1904092S13068 1904 7 SI MM NOT_NAMED 1904-04-05 15:00:00 NR -22.4475 66.7010 main 950 950 _____P________ -1 -22.4475 66.7010 99 4 117
1904092S13068 1904 7 SI MM NOT_NAMED 1904-04-05 18:00:00 NR -22.5320 66.8981 main 973 973 _____P________ -1 -22.5320 66.8981 99 4 113
1904092S13068 1904 7 SI MM NOT_NAMED 1904-04-05 21:00:00 NR -22.5939 67.0703 main 995 995 _____P________ -1 -22.5939 67.0703 99 3 110
1904092S13068 1904 7 SI MM NOT_NAMED 1904-04-06 00:00:00 NR -22.6387 67.2239 main 1005 1005 _____P________ -1 -22.6387 67.2239 99 3 106
1904092S13068 1904 7 SI MM NOT_NAMED 1904-04-06 03:00:00 NR -22.6722 67.3651 main 1028 1028 _____P________ -1 -22.6722 67.3651 99 3 104
1904092S13068 1904 7 SI MM NOT_NAMED 1904-04-06 06:00:00 NR -22.7000 67.5000 reunion main 1038 _____O________ -1 -22.7000 67.5000 99 9.90000 3 103

About IBTrACS Database

This database is a web-friendly format of International Best Track Archive for Climate Stewardship (IBTrACS), a global best track data archive curated by NOAA dating back to 1842.

Updated: 2021-10-21